SLOA4: Illinois River nr Siloam Springs AR

Data processed at Sat Aug 18 2018 23:18


All information presented herein is the property of the government of the United States of America and may be revised or deleted at any time without prior notice.
Dissemination of this information without the expressed written consent of the Public Affairs Office, Tulsa District U.S. Army Corps of Engineers is strictly prohibited.
These data are gathered electronically and, as presented, have not undergone any form of quality control. These data are not guaranteed to be valid or correct.
Go to home page.
Go to station list.

Upstream stations:

Downstream station:
Previous Day
Next Day
Current Day
    
SHEF ID:       SLOA4     Illinois River South of Siloam S
STATION TYPE:  

                STAGE  RIV-FLOW  BAT-LOAD
                   ft       cfs      volt
              Ccp-Rev   Ccp-Rev   Ccp-Rev
(US/Central)
08/18 00:00      8.13      3836     12.42
08/18 01:00      8.10      3810     12.42
08/18 02:00      7.87      3612     12.42
08/18 03:00      7.58      3370     12.36
08/18 04:00      7.23      3086     12.36
08/18 05:00      6.87      2804     12.36
08/18 06:00      6.55      2557     12.36
08/18 07:00      6.23      2320     12.36
08/18 08:00      5.96      2127     12.36
08/18 09:00      5.72      1962     12.60
08/18 10:00      5.54      1841     12.95
08/18 11:00      5.32      1697     13.36
08/18 12:00      5.11      1565     13.48
08/18 13:00      5.02      1509     13.48
08/18 14:00      4.89      1432     13.65
08/18 15:00      4.00       879     13.59
08/18 16:00      4.65      1294     13.36
08/18 17:00##########    169026     13.53
08/18 18:00      4.00       879     13.48
08/18 19:00##########    169026     13.18
08/18 20:00      4.36      1129     12.83
08/18 21:00      4.26      1068     12.42
08/18 22:00      4.22      ----     12.42
08/18 23:00      ----      ----      ----